Time;durP1;ratioP1;P1;durP2;ratioP2;P2;SDS_P1;SDS_P2;PMS_P1;PMS_P2;Temp;Humidity;BMP_temperature;BMP_pressure;BME280_temperature;BME280_humidity;BME280_pressure;Samples;Min_cycle;Max_cycle;Signal;HPM_P1;HPM_P2
2022/10/14 00:00:24;;;;;;;9.97;9.09;;;;;;;6.90;63.59;101678.93;465336;114;922535;-77
2022/10/14 00:01:30;;;;;;;10.08;9.15;;;;;;;6.88;63.58;101675.55;465412;114;922783;-76
2022/10/14 00:02:32;;;;;;;9.44;8.64;;;;;;;6.86;63.65;101680.28;465334;114;922476;-77
2022/10/14 00:03:37;;;;;;;9.60;8.76;;;;;;;6.84;63.55;101682.29;465489;114;922933;-77
2022/10/14 00:04:40;;;;;;;9.91;9.15;;;;;;;6.80;63.48;101681.78;465429;114;922395;-76
2022/10/14 00:05:43;;;;;;;9.69;9.00;;;;;;;6.78;63.51;101680.27;465555;114;922859;-76
2022/10/14 00:06:47;;;;;;;9.42;8.62;;;;;;;6.75;63.62;101676.00;465401;114;922901;-76
2022/10/14 00:07:52;;;;;;;10.05;9.26;;;;;;;6.75;63.80;101678.72;465283;114;922802;-76
2022/10/14 00:08:57;;;;;;;9.21;8.41;;;;;;;6.76;63.85;101675.00;466303;114;922474;-76
2022/10/14 00:10:00;;;;;;;8.53;7.83;;;;;;;6.78;63.90;101683.80;466347;114;922167;-76
2022/10/14 00:11:09;;;;;;;8.69;8.05;;;;;;;6.79;63.91;101679.22;466548;114;922825;-76
2022/10/14 00:12:12;;;;;;;8.47;7.74;;;;;;;6.80;63.86;101681.78;466376;114;922152;-76
2022/10/14 00:13:15;;;;;;;8.33;7.56;;;;;;;6.81;63.96;101677.21;466564;114;922142;-76
2022/10/14 00:14:19;;;;;;;8.82;8.02;;;;;;;6.83;63.77;101678.77;465494;114;922533;-77
2022/10/14 00:15:24;;;;;;;8.76;7.97;;;;;;;6.83;63.77;101678.77;465268;114;922536;-77
2022/10/14 00:16:31;;;;;;;9.24;8.54;;;;;;;6.83;63.68;101678.77;458805;114;922615;-77
2022/10/14 00:17:35;;;;;;;9.52;8.57;;;;;;;6.82;63.53;101681.63;456938;116;922579;-77
2022/10/14 00:18:38;;;;;;;10.98;8.14;;;;;;;6.79;63.40;101677.37;457220;116;922852;-77
2022/10/14 00:19:41;;;;;;;8.46;7.79;;;;;;;6.76;63.31;101677.70;457991;114;922811;-78
2022/10/14 00:20:47;;;;;;;8.28;7.68;;;;;;;6.73;63.28;101675.30;465438;113;922580;-77
2022/10/14 00:21:50;;;;;;;9.11;8.39;;;;;;;6.70;63.31;101672.94;464298;114;922568;-76
2022/10/14 00:22:53;;;;;;;8.39;7.71;;;;;;;6.69;63.36;101671.23;465413;113;923171;-77
2022/10/14 00:23:57;;;;;;;8.17;7.44;;;;;;;6.66;63.40;101669.72;465446;114;922573;-77
2022/10/14 00:25:01;;;;;;;8.32;7.69;;;;;;;6.65;63.39;101670.72;465318;114;922962;-78
2022/10/14 00:26:05;;;;;;;8.36;7.69;;;;;;;6.65;63.49;101669.88;465311;113;923135;-77
2022/10/14 00:27:09;;;;;;;8.04;7.44;;;;;;;6.65;63.51;101670.72;465223;114;923499;-77
2022/10/14 00:28:13;;;;;;;8.08;7.36;;;;;;;6.65;63.66;101667.16;465360;114;930565;-78
2022/10/14 00:29:17;;;;;;;8.26;7.62;;;;;;;6.65;63.60;101659.88;465465;114;922857;-75
2022/10/14 00:30:20;;;;;;;7.84;7.26;;;;;;;6.66;63.66;101663.44;459403;114;923114;-76
2022/10/14 00:31:24;;;;;;;8.23;7.51;;;;;;;6.65;63.61;101662.59;458570;114;930620;-77
2022/10/14 00:32:27;;;;;;;7.60;6.90;;;;;;;6.65;63.60;101659.88;465346;114;922840;-76
2022/10/14 00:33:30;;;;;;;7.92;7.28;;;;;;;6.64;63.52;101660.89;465410;114;922496;-76
2022/10/14 00:34:35;;;;;;;7.94;7.27;;;;;;;6.63;63.44;101664.60;457076;116;930505;-77
2022/10/14 00:35:39;;;;;;;7.55;6.68;;;;;;;6.61;63.46;101666.64;457316;115;922514;-77
2022/10/14 00:36:43;;;;;;;7.07;6.46;;;;;;;6.60;63.31;101669.52;457373;116;922552;-77
2022/10/14 00:37:48;;;;;;;6.48;5.97;;;;;;;6.58;63.27;101668.81;456936;116;922686;-77
2022/10/14 00:38:53;;;;;;;7.08;6.39;;;;;;;6.56;63.20;101673.56;457423;116;922676;-76
2022/10/14 00:39:56;;;;;;;7.14;6.57;;;;;;;6.53;63.21;101668.45;457201;116;922516;-77
2022/10/14 00:41:00;;;;;;;8.92;7.22;;;;;;;6.51;63.23;101665.05;457278;115;923038;-76
2022/10/14 00:42:03;;;;;;;6.54;6.04;;;;;;;6.49;63.26;101665.23;457303;115;922502;-76
2022/10/14 00:43:10;;;;;;;6.25;5.75;;;;;;;6.48;63.46;101662.67;457419;116;922530;-77
2022/10/14 00:44:16;;;;;;;6.67;6.02;;;;;;;6.48;63.58;101668.94;457060;116;922513;-76
2022/10/14 00:45:22;;;;;;;6.74;6.26;;;;;;;6.49;63.57;101662.52;457218;116;923059;-76
2022/10/14 00:46:27;;;;;;;6.75;6.18;;;;;;;6.51;63.64;101665.05;457078;115;922857;-76
2022/10/14 00:47:32;;;;;;;7.13;6.35;;;;;;;6.52;63.63;101664.89;456890;116;923067;-77
2022/10/14 00:48:36;;;;;;;8.80;5.65;;;;;;;6.54;63.68;101672.86;457200;116;922540;-77
2022/10/14 00:49:41;;;;;;;6.94;6.42;;;;;;;6.55;63.67;101671.86;457318;116;922682;-78
2022/10/14 00:50:48;;;;;;;6.27;5.77;;;;;;;6.55;63.65;101672.71;457116;115;923024;-77
2022/10/14 00:51:57;;;;;;;6.38;5.85;;;;;;;6.55;63.63;101666.44;459745;114;922533;-77
2022/10/14 00:53:02;;;;;;;6.16;5.51;;;;;;;6.54;63.57;101665.59;461913;114;922676;-75
2022/10/14 00:54:06;;;;;;;5.59;5.19;;;;;;;6.55;63.57;101663.73;461981;114;922644;-77
2022/10/14 00:55:15;;;;;;;6.34;5.73;;;;;;;6.54;63.48;101667.45;462029;114;922950;-77
2022/10/14 00:56:22;;;;;;;6.61;5.18;;;;;;;6.52;63.44;101664.03;461890;114;922497;-77
2022/10/14 00:57:26;;;;;;;5.48;4.98;;;;;;;6.50;63.36;101668.79;461914;114;923062;-76
2022/10/14 00:58:29;;;;;;;5.74;5.26;;;;;;;6.47;63.33;101664.53;461944;114;922639;-77
2022/10/14 00:59:33;;;;;;;5.58;5.13;;;;;;;6.45;63.26;101668.42;462071;114;930501;-78
2022/10/14 01:00:36;;;;;;;5.42;4.98;;;;;;;6.42;63.37;101674.16;462041;114;923035;-76
2022/10/14 01:01:40;;;;;;;4.86;4.48;;;;;;;6.39;63.34;101683.47;462037;114;922576;-76
2022/10/14 01:02:43;;;;;;;5.11;4.68;;;;;;;6.38;63.43;101676.34;462067;114;923045;-76
2022/10/14 01:03:45;;;;;;;4.91;4.56;;;;;;;6.39;63.59;101671.78;462139;114;922923;-77
2022/10/14 01:04:49;;;;;;;6.18;5.04;;;;;;;6.40;63.71;101665.32;462068;114;922675;-76
2022/10/14 01:06:11;;;;;;;4.91;4.51;;;;;;;6.41;63.71;101667.03;462079;114;922541;-76
2022/10/14 01:07:46;;;;;;;4.98;4.50;;;;;;;6.41;63.66;101670.59;461901;114;922963;-76
2022/10/14 01:08:58;;;;;;;5.16;4.52;;;;;;;6.41;63.68;101665.17;461948;114;922884;-77
2022/10/14 01:10:08;;;;;;;5.44;4.69;;;;;;;6.39;63.78;101661.80;461943;114;922518;-75
2022/10/14 01:11:24;;;;;;;6.28;5.57;;;;;;;6.39;63.84;101664.50;461862;114;923229;-75
2022/10/14 01:12:55;;;;;;;5.33;4.81;;;;;;;6.39;63.80;101660.95;461602;114;922514;-76
2022/10/14 01:14:10;;;;;;;5.20;4.80;;;;;;;6.37;63.77;101666.52;461629;114;922562;-76
2022/10/14 01:15:46;;;;;;;6.57;4.89;;;;;;;6.35;63.74;101664.96;461487;114;930948;-77
2022/10/14 01:17:15;;;;;;;4.69;4.26;;;;;;;6.31;63.73;101672.57;457076;116;922587;-76
2022/10/14 01:18:50;;;;;;;4.48;4.11;;;;;;;6.28;63.75;101679.14;456262;116;922673;-76
2022/10/14 01:20:24;;;;;;;7.88;4.69;;;;;;;6.25;63.82;101679.48;457179;116;922542;-77
2022/10/14 01:21:45;;;;;;;4.77;4.37;;;;;;;6.21;63.88;101680.81;456961;115;922962;-76
2022/10/14 01:23:07;;;;;;;5.25;4.46;;;;;;;6.17;63.95;101684.86;457317;116;923065;-77
2022/10/14 01:24:39;;;;;;;4.64;4.19;;;;;;;6.25;64.21;101678.63;477108;110;946756;-77
2022/10/14 01:26:05;;;;;;;4.28;3.77;;;;;;;6.13;64.25;101683.45;464363;114;922611;-76
2022/10/14 01:27:40;;;;;;;4.44;3.93;;;;;;;6.13;64.22;101682.60;457331;116;922620;-77
2022/10/14 01:29:08;;;;;;;5.28;4.12;;;;;;;6.11;64.33;101677.37;457231;116;922600;-77
2022/10/14 01:30:19;;;;;;;6.54;4.47;;;;;;;6.10;64.34;101681.08;459132;115;922970;-76
2022/10/14 01:31:26;;;;;;;5.16;3.69;;;;;;;6.09;64.43;101684.79;459897;115;922645;-78
2022/10/14 01:32:32;;;;;;;4.93;4.51;;;;;;;6.11;64.58;101685.49;457314;115;922483;-77
2022/10/14 01:33:39;;;;;;;4.77;4.39;;;;;;;6.13;64.57;101683.45;457736;113;922990;-77
2022/10/14 01:34:46;;;;;;;5.18;4.78;;;;;;;6.15;64.61;101688.72;466354;113;922546;-76
2022/10/14 01:35:56;;;;;;;4.33;4.03;;;;;;;6.17;64.62;101682.15;465833;113;923024;-77
2022/10/14 01:37:03;;;;;;;4.12;3.79;;;;;;;6.19;64.61;101687.38;461944;113;922775;-76
2022/10/14 01:38:12;;;;;;;5.09;3.82;;;;;;;6.21;64.78;101691.65;466329;113;922993;-77
2022/10/14 01:39:19;;;;;;;5.99;4.43;;;;;;;6.22;64.69;101682.52;465715;113;922885;-77
2022/10/14 01:40:32;;;;;;;5.04;4.17;;;;;;;6.27;64.69;101682.03;466424;113;922502;-77
2022/10/14 01:41:54;;;;;;;4.12;3.83;;;;;;;6.27;64.66;101692.87;465548;113;922462;-78
2022/10/14 01:42:59;;;;;;;4.08;3.78;;;;;;;6.28;64.61;101684.56;466286;113;922905;-77
2022/10/14 01:44:06;;;;;;;4.44;4.03;;;;;;;6.30;64.56;101681.70;466394;113;923087;-77
2022/10/14 01:45:13;;;;;;;4.45;4.08;;;;;;;6.29;64.56;101679.99;466442;113;922642;-77
2022/10/14 01:46:19;;;;;;;4.52;4.12;;;;;;;6.31;64.57;101687.97;466403;113;922911;-77
2022/10/14 01:47:24;;;;;;;7.18;3.79;;;;;;;6.31;64.56;101683.41;466470;113;922522;-77
2022/10/14 01:48:31;;;;;;;5.23;3.68;;;;;;;6.32;64.57;101686.97;466399;113;923001;-77
2022/10/14 01:49:38;;;;;;;4.36;3.81;;;;;;;6.34;64.64;101690.38;466412;113;922642;-77
2022/10/14 01:50:45;;;;;;;4.16;3.79;;;;;;;6.35;64.61;101681.21;466183;113;923050;-77
2022/10/14 01:51:52;;;;;;;4.14;3.82;;;;;;;6.36;64.55;101681.06;460913;113;922624;-76
2022/10/14 01:53:04;;;;;;;5.26;4.17;;;;;;;6.36;64.47;101688.33;455647;116;923067;-76
2022/10/14 01:54:12;;;;;;;4.47;4.09;;;;;;;6.36;64.42;101682.91;455560;116;923143;-76
2022/10/14 01:55:18;;;;;;;4.73;4.33;;;;;;;6.33;64.26;101678.69;455446;116;922429;-76
2022/10/14 01:56:23;;;;;;;5.00;4.23;;;;;;;6.31;64.21;101685.27;455564;116;922866;-76
2022/10/14 01:57:29;;;;;;;5.19;4.74;;;;;;;6.30;64.24;101684.41;455705;116;922573;-76
2022/10/14 01:58:34;;;;;;;5.45;4.57;;;;;;;6.30;64.28;101687.12;455503;116;922960;-76
2022/10/14 01:59:39;;;;;;;4.96;4.56;;;;;;;6.28;64.28;101684.56;438122;120;922634;-76
2022/10/14 02:00:42;;;;;;;4.97;4.57;;;;;;;6.28;64.11;101684.56;446930;116;930747;-76
2022/10/14 02:01:45;;;;;;;4.71;4.33;;;;;;;6.27;64.11;101680.18;455762;116;922651;-75
2022/10/14 02:02:50;;;;;;;7.10;4.66;;;;;;;6.28;64.27;101672.91;455598;116;922522;-76
2022/10/14 02:03:53;;;;;;;4.82;4.42;;;;;;;6.28;64.28;101683.73;455745;116;922682;-76
2022/10/14 02:04:56;;;;;;;5.17;4.71;;;;;;;6.27;64.38;101685.59;455766;116;922602;-74
2022/10/14 02:06:06;;;;;;;6.08;4.34;;;;;;;6.28;64.22;101679.14;455769;116;922541;-76
2022/10/14 02:07:24;;;;;;;4.73;4.34;;;;;;;6.28;64.22;101681.03;455590;116;922604;-76
2022/10/14 02:08:49;;;;;;;4.81;4.41;;;;;;;6.27;64.21;101682.03;455653;116;922843;-76
2022/10/14 02:10:04;;;;;;;4.62;4.27;;;;;;;6.26;64.38;101686.59;454614;116;923095;-77
2022/10/14 02:11:14;;;;;;;4.45;4.09;;;;;;;6.28;64.58;101686.45;454603;116;923371;-78
2022/10/14 02:12:55;;;;;;;4.29;3.89;;;;;;;6.28;64.57;101681.85;455870;116;922588;-76
2022/10/14 02:14:09;;;;;;;4.02;3.72;;;;;;;6.29;64.69;101683.55;457302;116;923373;-77
2022/10/14 02:15:40;;;;;;;4.62;4.22;;;;;;;6.27;64.60;101680.18;457244;116;922582;-76
2022/10/14 02:16:50;;;;;;;4.18;3.63;;;;;;;6.26;64.50;101678.47;449306;118;922869;-77
2022/10/14 02:17:57;;;;;;;5.11;4.21;;;;;;;6.23;64.42;101676.06;449102;117;930430;-77
2022/10/14 02:19:03;;;;;;;4.11;3.80;;;;;;;6.21;64.62;101680.81;449506;118;923147;-77
2022/10/14 02:20:22;;;;;;;3.78;3.48;;;;;;;6.21;64.54;101678.11;449270;117;922630;-76
2022/10/14 02:21:41;;;;;;;7.73;3.96;;;;;;;6.21;64.58;101680.81;439998;118;922780;-77
2022/10/14 02:22:48;;;;;;;4.17;3.76;;;;;;;6.21;64.57;101683.52;448684;117;922528;-76
2022/10/14 02:23:54;;;;;;;4.93;4.52;;;;;;;6.19;64.48;101690.95;449441;117;923009;-77
2022/10/14 02:25:11;;;;;;;5.23;4.42;;;;;;;6.26;64.49;101681.19;477020;110;946910;-75
2022/10/14 02:26:16;;;;;;;4.62;3.90;;;;;;;6.13;64.40;101688.88;460253;113;922976;-77
2022/10/14 02:27:22;;;;;;;4.61;4.20;;;;;;;6.13;64.45;101690.72;457349;115;922530;-76
2022/10/14 02:28:28;;;;;;;4.83;4.42;;;;;;;6.13;64.59;101680.75;457244;116;931091;-77
2022/10/14 02:29:34;;;;;;;4.95;4.44;;;;;;;6.14;64.56;101685.16;457239;116;922973;-78
2022/10/14 02:30:41;;;;;;;4.53;4.13;;;;;;;6.16;64.69;101688.57;449402;116;922555;-76
2022/10/14 02:31:45;;;;;;;6.82;3.93;;;;;;;6.20;64.79;101684.52;452743;116;922589;-76
2022/10/14 02:32:50;;;;;;;4.67;4.28;;;;;;;6.23;64.82;101683.34;457357;116;922790;-77
2022/10/14 02:33:56;;;;;;;4.60;4.22;;;;;;;6.26;64.85;101683.03;454844;114;922949;-76
2022/10/14 02:35:01;;;;;;;4.46;4.08;;;;;;;6.29;64.93;101679.99;449429;118;923044;-77
2022/10/14 02:36:06;;;;;;;4.12;3.59;;;;;;;6.33;64.90;101685.96;449464;116;922684;-76
2022/10/14 02:37:13;;;;;;;4.98;4.50;;;;;;;6.35;64.85;101689.34;449505;118;922521;-76
2022/10/14 02:38:18;;;;;;;4.07;3.76;;;;;;;6.36;64.74;101694.60;449504;118;922527;-76
2022/10/14 02:39:28;;;;;;;6.16;4.62;;;;;;;6.38;64.68;101698.02;449434;118;922587;-77
2022/10/14 02:40:33;;;;;;;;;;;;;;;6.39;64.56;101696.16;453241;118;922026;-76
2022/10/14 02:41:37;;;;;;;5.50;4.53;;;;;;;6.38;64.53;101692.59;449512;117;922280;-76
2022/10/14 02:42:42;;;;;;;4.51;4.14;;;;;;;6.33;64.51;101692.23;449425;118;930579;-77
2022/10/14 02:43:45;;;;;;;4.98;4.52;;;;;;;6.32;64.48;101692.38;449727;117;922510;-76
2022/10/14 02:44:59;;;;;;;5.41;4.92;;;;;;;6.31;64.46;101691.53;449644;117;922545;-77
2022/10/14 02:46:03;;;;;;;5.48;4.97;;;;;;;6.31;64.41;101690.67;449452;116;922578;-76
2022/10/14 02:47:06;;;;;;;5.11;4.69;;;;;;;6.30;64.29;101692.53;449530;118;922528;-77
2022/10/14 02:48:11;;;;;;;5.26;4.64;;;;;;;6.31;64.28;101699.66;449623;118;922828;-76
2022/10/14 02:49:15;;;;;;;4.74;4.34;;;;;;;6.32;64.54;101690.53;449440;117;922997;-77
2022/10/14 02:50:19;;;;;;;5.06;4.57;;;;;;;6.35;64.60;101684.77;449484;118;922629;-77
2022/10/14 02:51:22;;;;;;;5.59;4.92;;;;;;;6.38;64.62;101679.05;450180;116;922569;-76
2022/10/14 02:52:25;;;;;;;7.28;4.49;;;;;;;6.42;64.62;101676.86;455675;116;930463;-77
2022/10/14 02:53:29;;;;;;;4.87;4.38;;;;;;;6.45;64.59;101676.55;455766;116;923029;-76
2022/10/14 02:54:33;;;;;;;4.09;3.75;;;;;;;6.45;64.57;101677.37;450802;117;922704;-77
2022/10/14 02:55:37;;;;;;;4.96;4.55;;;;;;;6.48;64.48;101687.05;451129;116;922595;-76
2022/10/14 02:56:41;;;;;;;4.96;4.38;;;;;;;6.49;64.35;101678.77;455717;116;922429;-76
2022/10/14 02:57:44;;;;;;;4.71;4.31;;;;;;;6.50;64.28;101682.34;446540;118;922649;-77
2022/10/14 02:58:47;;;;;;;4.68;4.28;;;;;;;6.50;64.33;101680.48;446806;116;923031;-77
2022/10/14 02:59:50;;;;;;;4.28;3.74;;;;;;;6.52;64.39;101681.14;455703;116;923207;-77
2022/10/14 03:00:53;;;;;;;5.35;4.24;;;;;;;6.54;64.46;101681.84;455738;114;922578;-77
2022/10/14 03:01:56;;;;;;;5.72;4.29;;;;;;;6.57;64.41;101675.23;455792;116;923209;-76
2022/10/14 03:03:00;;;;;;;4.78;4.11;;;;;;;6.58;64.36;101671.52;455750;116;923486;-76
2022/10/14 03:04:03;;;;;;;4.63;4.20;;;;;;;6.59;64.28;101668.66;446437;118;922996;-76
2022/10/14 03:05:07;;;;;;;4.42;4.01;;;;;;;6.61;64.16;101673.92;446791;116;922713;-76
2022/10/14 03:06:11;;;;;;;4.22;3.88;;;;;;;6.61;64.09;101671.21;455693;116;922637;-77
2022/10/14 03:07:14;;;;;;;4.72;4.32;;;;;;;6.61;64.17;101684.77;446499;118;922554;-77
2022/10/14 03:08:19;;;;;;;4.70;4.26;;;;;;;6.62;64.25;101681.02;446837;116;930525;-76
2022/10/14 03:09:22;;;;;;;4.57;4.21;;;;;;;6.64;64.34;101679.86;449602;118;922495;-77
2022/10/14 03:10:25;;;;;;;5.15;4.56;;;;;;;6.68;64.36;101680.37;448173;118;922729;-76
2022/10/14 03:11:29;;;;;;;7.93;4.66;;;;;;;6.71;64.40;101677.35;448106;116;922668;-76
2022/10/14 03:12:34;;;;;;;4.03;3.59;;;;;;;6.73;64.35;101675.30;449413;118;922522;-76
2022/10/14 03:13:37;;;;;;;3.84;3.54;;;;;;;6.75;64.29;101675.16;448146;117;922555;-77
2022/10/14 03:14:40;;;;;;;4.23;3.75;;;;;;;6.77;64.34;101675.84;448152;118;923087;-76
2022/10/14 03:15:46;;;;;;;4.85;4.26;;;;;;;6.79;64.28;101669.23;450001;116;922595;-76
2022/10/14 03:16:49;;;;;;;4.53;4.13;;;;;;;6.81;64.30;101675.35;453708;117;930947;-76
2022/10/14 03:17:54;;;;;;;5.59;4.35;;;;;;;6.84;64.32;101671.45;453554;117;922575;-76
2022/10/14 03:18:59;;;;;;;5.81;5.18;;;;;;;6.86;64.29;101669.44;453242;117;923443;-76
2022/10/14 03:20:05;;;;;;;4.78;4.38;;;;;;;6.88;64.34;101673.70;452233;117;922526;-76
2022/10/14 03:21:10;;;;;;;4.84;4.44;;;;;;;6.90;64.23;101666.23;453645;115;923088;-76
2022/10/14 03:22:13;;;;;;;5.47;4.93;;;;;;;6.92;64.10;101671.48;453900;117;922611;-76
2022/10/14 03:23:17;;;;;;;5.05;4.65;;;;;;;6.93;63.98;101673.20;453931;117;922824;-76
2022/10/14 03:24:21;;;;;;;5.57;5.09;;;;;;;6.93;63.85;101684.89;453729;117;922525;-76
2022/10/14 03:25:27;;;;;;;6.02;5.51;;;;;;;6.92;63.66;101668.78;453536;116;923029;-77
2022/10/14 03:26:44;;;;;;;6.10;5.53;;;;;;;6.90;63.54;101663.52;455106;116;922914;-77
2022/10/14 03:27:47;;;;;;;5.64;5.09;;;;;;;6.88;63.49;101667.42;455501;116;922987;-77
2022/10/14 03:28:50;;;;;;;5.50;4.58;;;;;;;6.87;63.51;101671.14;455519;116;922866;-77
2022/10/14 03:29:58;;;;;;;5.47;4.98;;;;;;;6.86;63.67;101678.42;457059;115;923116;-76
2022/10/14 03:31:01;;;;;;;6.02;5.41;;;;;;;6.88;63.80;101679.12;460556;115;923114;-75
2022/10/14 03:32:06;;;;;;;5.51;4.98;;;;;;;6.90;63.64;101673.50;459889;115;923068;-77
2022/10/14 03:33:23;;;;;;;7.88;5.01;;;;;;;6.90;63.60;101670.80;457764;115;922572;-76
2022/10/14 03:34:30;;;;;;;5.58;5.14;;;;;;;6.89;63.37;101664.52;451825;115;922551;-76
2022/10/14 03:35:35;;;;;;;5.57;4.87;;;;;;;6.89;63.35;101661.81;451635;115;922915;-76
2022/10/14 03:36:40;;;;;;;6.59;5.31;;;;;;;6.89;63.37;101669.12;451702;117;922996;-77
2022/10/14 03:37:43;;;;;;;5.15;4.69;;;;;;;6.89;63.42;101669.12;451874;116;923350;-77
2022/10/14 03:38:46;;;;;;;5.53;5.13;;;;;;;6.89;63.44;101669.94;448424;118;922855;-76
2022/10/14 03:39:55;;;;;;;5.50;4.96;;;;;;;6.91;63.46;101673.34;448009;117;922652;-76
2022/10/14 03:40:59;;;;;;;5.59;5.09;;;;;;;6.93;63.44;101665.91;448519;118;922641;-76
2022/10/14 03:42:03;;;;;;;5.21;4.81;;;;;;;6.94;63.36;101656.77;448822;117;923341;-76
2022/10/14 03:43:08;;;;;;;5.25;4.86;;;;;;;6.94;63.31;101655.92;450838;117;922983;-76
2022/10/14 03:44:13;;;;;;;5.48;4.78;;;;;;;6.94;63.29;101664.91;451439;117;922596;-76
2022/10/14 03:45:17;;;;;;;5.42;4.92;;;;;;;6.96;63.35;101681.84;451581;117;922754;-76
2022/10/14 03:46:22;;;;;;;5.31;4.76;;;;;;;6.98;63.36;101687.11;451811;115;922731;-76
2022/10/14 03:47:25;;;;;;;6.10;5.58;;;;;;;6.97;63.33;101669.98;451952;117;922875;-76
2022/10/14 03:48:28;;;;;;;5.76;5.16;;;;;;;6.98;63.24;101674.41;451977;117;923053;-76
2022/10/14 03:49:32;;;;;;;7.83;5.25;;;;;;;6.97;63.21;101671.84;451950;117;922547;-77
2022/10/14 03:50:37;;;;;;;5.48;5.02;;;;;;;6.95;63.12;101666.58;451596;115;930501;-77
2022/10/14 03:51:40;;;;;;;5.53;5.12;;;;;;;6.95;63.08;101677.42;451361;116;923110;-76
2022/10/14 03:52:45;;;;;;;5.56;5.06;;;;;;;6.94;63.07;101675.75;455923;115;922649;-76
2022/10/14 03:53:52;;;;;;;9.53;5.17;;;;;;;6.94;63.05;101683.03;459298;115;923051;-76
2022/10/14 03:54:57;;;;;;;5.26;4.74;;;;;;;6.93;63.02;101681.33;459419;115;922570;-76
2022/10/14 03:56:01;;;;;;;5.69;5.20;;;;;;;6.94;62.97;101685.75;453569;115;922802;-75
2022/10/14 03:57:05;;;;;;;5.09;4.62;;;;;;;6.92;63.06;101677.77;453910;115;922626;-76
2022/10/14 03:58:11;;;;;;;5.52;5.11;;;;;;;6.92;63.02;101675.05;459234;115;922436;-77
2022/10/14 03:59:15;;;;;;;5.39;4.91;;;;;;;6.92;63.05;101676.91;453533;116;922897;-76
2022/10/14 04:00:20;;;;;;;5.04;4.56;;;;;;;6.91;63.04;101675.21;453865;115;922563;-76
2022/10/14 04:01:25;;;;;;;7.23;5.22;;;;;;;6.91;63.09;101684.20;459643;113;923090;-76
2022/10/14 04:02:30;;;;;;;5.94;4.78;;;;;;;6.92;63.12;101687.76;458793;115;922844;-76
2022/10/14 04:03:33;;;;;;;5.31;4.80;;;;;;;6.92;63.04;101690.47;459843;115;922902;-77
2022/10/14 04:04:37;;;;;;;5.95;4.84;;;;;;;6.91;62.96;101689.62;459813;115;922461;-77
2022/10/14 04:05:40;;;;;;;4.37;4.03;;;;;;;6.90;62.95;101682.49;459747;115;922544;-76
2022/10/14 04:06:45;;;;;;;5.41;4.89;;;;;;;6.90;63.20;101690.63;459552;115;922650;-79
2022/10/14 04:07:48;;;;;;;5.31;4.87;;;;;;;6.92;63.31;101683.19;459762;115;923088;-76
2022/10/14 04:08:51;;;;;;;5.65;5.17;;;;;;;6.94;63.37;101683.03;459748;115;922865;-77
2022/10/14 04:09:56;;;;;;;5.41;4.94;;;;;;;6.95;63.25;101685.55;459467;115;930928;-77
2022/10/14 04:11:00;;;;;;;5.53;5.01;;;;;;;6.95;63.22;101672.00;459749;115;922917;-74
2022/10/14 04:12:05;;;;;;;5.85;4.85;;;;;;;6.96;63.25;101683.70;459621;115;925441;-73
2022/10/14 04:13:10;;;;;;;5.35;4.70;;;;;;;6.96;63.32;101687.27;459338;115;930492;-77
2022/10/14 04:14:14;;;;;;;6.55;4.95;;;;;;;6.97;63.38;101683.54;459733;115;922775;-77
2022/10/14 04:15:19;;;;;;;6.16;5.61;;;;;;;6.99;63.50;101678.81;460127;115;922638;-76
2022/10/14 04:16:23;;;;;;;5.24;4.79;;;;;;;7.01;63.58;101682.19;458666;115;922373;-75
2022/10/14 04:17:28;;;;;;;5.95;5.46;;;;;;;7.04;63.70;101676.45;455150;116;922134;-77
2022/10/14 04:18:34;;;;;;;7.24;4.62;;;;;;;7.07;63.68;101677.97;458193;116;922752;-75
2022/10/14 04:19:37;;;;;;;5.24;4.78;;;;;;;7.10;63.77;101678.51;458509;116;922201;-76
2022/10/14 04:20:41;;;;;;;5.38;4.88;;;;;;;7.15;63.79;101682.58;457884;116;922279;-76
2022/10/14 04:21:45;;;;;;;5.42;4.91;;;;;;;7.17;63.80;101680.56;457508;116;922515;-76
2022/10/14 04:22:48;;;;;;;5.69;5.03;;;;;;;7.19;63.75;101678.51;457490;116;930478;-76
2022/10/14 04:23:52;;;;;;;5.75;5.17;;;;;;;7.19;63.69;101681.22;457464;116;922964;-77
2022/10/14 04:24:57;;;;;;;6.67;5.34;;;;;;;7.19;63.64;101682.08;456490;116;923527;-77
2022/10/14 04:26:04;;;;;;;5.80;5.36;;;;;;;7.20;63.77;101669.37;456842;116;922573;-77
2022/10/14 04:27:07;;;;;;;6.12;4.96;;;;;;;7.23;63.89;101678.00;456670;116;930549;-77
2022/10/14 04:28:13;;;;;;;5.71;5.06;;;;;;;7.26;64.02;101683.12;455489;116;923236;-78
2022/10/14 04:29:24;;;;;;;5.45;4.96;;;;;;;7.30;64.02;101670.06;456522;116;922452;-76
2022/10/14 04:30:29;;;;;;;6.53;5.03;;;;;;;7.33;63.99;101677.87;453592;116;922550;-76
2022/10/14 04:31:33;;;;;;;7.90;5.04;;;;;;;7.34;63.96;101682.27;455046;115;922617;-76
2022/10/14 04:32:37;;;;;;;6.31;5.68;;;;;;;7.37;63.94;101679.23;458735;115;922550;-76
2022/10/14 04:33:41;;;;;;;10.26;6.72;;;;;;;7.38;63.90;101679.08;458776;115;922691;-77
2022/10/14 04:34:46;;;;;;;5.59;4.96;;;;;;;7.40;63.78;101678.88;458100;115;930745;-77
2022/10/14 04:35:59;;;;;;;5.96;4.98;;;;;;;7.39;63.67;101680.75;458620;113;922838;-77
2022/10/14 04:37:04;;;;;;;5.76;5.26;;;;;;;7.41;63.81;101676.02;458460;115;922789;-79
2022/10/14 04:38:08;;;;;;;6.59;5.08;;;;;;;7.44;63.96;101680.27;455311;115;922571;-76
2022/10/14 04:39:14;;;;;;;5.41;4.91;;;;;;;7.47;63.95;101685.34;458227;115;922663;-76
2022/10/14 04:40:19;;;;;;;5.30;4.94;;;;;;;7.50;64.00;101680.42;458744;115;922531;-76
2022/10/14 04:41:22;;;;;;;6.12;5.21;;;;;;;7.54;63.98;101675.53;452047;115;922890;-74
2022/10/14 04:42:26;;;;;;;5.51;5.01;;;;;;;7.56;63.95;101687.05;452449;115;922977;-77
2022/10/14 04:43:31;;;;;;;6.50;5.63;;;;;;;7.58;63.82;101690.45;458613;115;923325;-77
2022/10/14 04:44:36;;;;;;;5.74;5.25;;;;;;;7.60;63.83;101690.29;458060;115;922978;-77
2022/10/14 04:45:39;;;;;;;5.74;4.81;;;;;;;7.62;63.83;101683.66;458807;113;922943;-76
2022/10/14 04:46:44;;;;;;;5.66;5.19;;;;;;;7.63;63.67;101685.36;458697;115;922489;-76
2022/10/14 04:47:47;;;;;;;6.09;5.44;;;;;;;7.63;63.71;101690.79;458769;115;922520;-76
2022/10/14 04:48:53;;;;;;;6.84;5.04;;;;;;;7.63;63.60;101685.36;458670;115;922556;-76
2022/10/14 04:49:57;;;;;;;7.12;6.03;;;;;;;7.66;63.63;101686.91;458663;115;922849;-76
2022/10/14 04:51:01;;;;;;;6.32;5.76;;;;;;;7.67;63.59;101688.58;458762;113;922625;-76
2022/10/14 04:52:06;;;;;;;6.71;5.69;;;;;;;7.68;63.55;101690.28;461603;114;922635;-77
2022/10/14 04:53:11;;;;;;;6.39;5.69;;;;;;;7.68;63.54;101693.84;463061;113;922857;-75
2022/10/14 04:54:21;;;;;;;6.63;6.12;;;;;;;7.69;63.51;101694.70;461806;114;923298;-76
2022/10/14 04:55:28;;;;;;;6.89;6.20;;;;;;;7.69;63.41;101687.41;462913;113;922979;-75
2022/10/14 04:56:32;;;;;;;6.59;5.97;;;;;;;7.69;63.46;101692.83;463134;114;922976;-77
2022/10/14 04:57:39;;;;;;;7.44;6.74;;;;;;;7.70;63.54;101691.82;463050;114;922492;-77
2022/10/14 04:58:41;;;;;;;7.38;6.53;;;;;;;7.72;63.60;101694.37;466177;113;922663;-76
2022/10/14 04:59:45;;;;;;;7.34;6.68;;;;;;;7.73;63.43;101696.05;466276;113;922517;-76
2022/10/14 05:00:51;;;;;;;6.82;6.19;;;;;;;7.73;63.36;101694.19;462686;113;923032;-76
2022/10/14 05:01:59;;;;;;;7.00;6.28;;;;;;;7.73;63.26;101696.90;450574;116;923130;-77
2022/10/14 05:03:04;;;;;;;6.53;6.03;;;;;;;7.74;63.28;101692.32;449772;117;922746;-75
2022/10/14 05:04:08;;;;;;;6.77;6.17;;;;;;;7.74;63.38;101692.32;450343;117;922786;-74
2022/10/14 05:05:13;;;;;;;8.42;6.45;;;;;;;7.74;63.32;101695.88;450459;117;922990;-76
2022/10/14 05:06:18;;;;;;;7.08;6.41;;;;;;;7.76;63.46;101688.44;450396;115;922561;-75
2022/10/14 05:07:23;;;;;;;7.20;6.54;;;;;;;7.78;63.59;101683.66;450446;117;922998;-76
2022/10/14 05:08:28;;;;;;;7.06;6.43;;;;;;;7.81;63.54;101687.92;450237;117;922888;-75
2022/10/14 05:09:32;;;;;;;7.08;6.11;;;;;;;7.83;63.52;101686.72;450357;117;922741;-76
2022/10/14 05:10:36;;;;;;;6.59;5.97;;;;;;;7.85;63.49;101689.27;450586;115;922460;-75